Time;durP1;ratioP1;P1;durP2;ratioP2;P2;SDS_P1;SDS_P2;PMS_P1;PMS_P2;Temp;Humidity;BMP_temperature;BMP_pressure;BME280_temperature;BME280_humidity;BME280_pressure;Samples;Min_cycle;Max_cycle;Signal;HPM_P1;HPM_P2
2022/04/18 00:01:52;;;;;;;1279.03;999.90;;;11.60;99.90;;;;;;5060517;28;20640;-68
2022/04/18 00:04:18;;;;;;;1277.97;999.90;;;11.60;99.90;;;;;;5094157;28;20192;-69
2022/04/18 00:06:44;;;;;;;1285.90;999.90;;;11.60;99.90;;;;;;5077340;28;20277;-68
2022/04/18 00:09:11;;;;;;;1285.47;999.90;;;11.70;99.90;;;;;;5077146;28;20188;-68
2022/04/18 00:11:36;;;;;;;1280.63;999.90;;;11.70;99.90;;;;;;5094223;28;20184;-69
2022/04/18 00:14:03;;;;;;;1285.60;999.90;;;11.70;99.90;;;;;;5059715;28;20730;-68
2022/04/18 00:16:29;;;;;;;1287.07;999.90;;;11.80;99.90;;;;;;5089110;28;20264;-68
2022/04/18 00:18:54;;;;;;;1282.83;999.90;;;11.90;99.90;;;;;;5063763;28;20271;-68
2022/04/18 00:21:20;;;;;;;1285.70;999.90;;;11.70;99.90;;;;;;5077253;28;20211;-68
2022/04/18 00:23:46;;;;;;;1287.03;999.90;;;11.50;99.90;;;;;;5076934;28;20288;-68
2022/04/18 00:26:12;;;;;;;1289.63;999.90;;;11.40;99.90;;;;;;5093747;28;20187;-68
2022/04/18 00:28:39;;;;;;;1291.80;999.90;;;11.30;99.90;;;;;;5094506;28;20254;-70
2022/04/18 00:31:04;;;;;;;1296.40;999.90;;;11.20;99.90;;;;;;5094585;28;20180;-69
2022/04/18 00:33:31;;;;;;;1292.83;999.90;;;11.10;99.90;;;;;;5094745;28;20329;-68
2022/04/18 00:35:57;;;;;;;1303.23;999.90;;;11.00;99.90;;;;;;5075570;28;20215;-68
2022/04/18 00:38:23;;;;;;;1297.13;999.90;;;10.90;99.90;;;;;;5093775;28;20189;-68
2022/04/18 00:40:49;;;;;;;1296.60;999.90;;;10.80;99.90;;;;;;5076366;28;20220;-68
2022/04/18 00:43:15;;;;;;;1305.73;999.90;;;10.70;99.90;;;;;;5093668;28;20279;-69
2022/04/18 00:45:41;;;;;;;1304.10;999.90;;;10.60;99.90;;;;;;5077481;28;20173;-68
2022/04/18 00:48:07;;;;;;;1303.17;999.90;;;10.60;99.90;;;;;;5093456;28;20184;-68
2022/04/18 00:50:34;;;;;;;1307.00;999.90;;;10.60;99.90;;;;;;5094630;28;20294;-74
2022/04/18 00:53:02;;;;;;;1306.00;999.90;;;10.50;99.90;;;;;;5070953;28;20209;-68
2022/04/18 00:55:28;;;;;;;1308.53;999.90;;;10.50;99.90;;;;;;5076463;28;20279;-68
2022/04/18 00:57:55;;;;;;;1304.80;999.90;;;10.40;99.90;;;;;;5076286;28;20606;-68
2022/04/18 01:00:24;;;;;;;1303.70;999.90;;;10.40;99.90;;;;;;5094320;28;20558;-68
2022/04/18 01:02:51;;;;;;;1307.10;999.90;;;10.40;99.90;;;;;;5075850;28;20187;-69
2022/04/18 01:05:17;;;;;;;1309.93;999.90;;;10.40;99.90;;;;;;5094383;28;20246;-68
2022/04/18 01:07:44;;;;;;;1320.67;999.90;;;10.30;99.90;;;;;;5059413;28;20193;-68
2022/04/18 01:10:09;;;;;;;1320.27;999.90;;;10.20;99.90;;;;;;5092596;28;20637;-68
2022/04/18 01:12:35;;;;;;;1326.90;999.90;;;10.20;99.90;;;;;;5093704;28;20218;-68
2022/04/18 01:15:01;;;;;;;1328.03;999.90;;;10.20;99.90;;;;;;5093998;28;20216;-68
2022/04/18 01:17:27;;;;;;;1330.67;999.90;;;10.10;99.90;;;;;;5083906;28;20657;-68
2022/04/18 01:19:53;;;;;;;1330.87;999.90;;;10.10;99.90;;;;;;5082572;28;20194;-68
2022/04/18 01:22:19;;;;;;;1332.00;999.90;;;10.10;99.90;;;;;;5093575;28;20184;-68
2022/04/18 01:30:15;;;;;;;1337.80;999.90;;;9.90;99.90;;;;;;5078500;28;20630;-68
2022/04/18 01:32:42;;;;;;;1343.30;999.90;;;9.80;99.90;;;;;;5073257;28;20616;-68
2022/04/18 01:35:09;;;;;;;1340.97;999.90;;;9.70;99.90;;;;;;5080865;28;20189;-68
2022/04/18 01:37:36;;;;;;;1346.60;999.90;;;9.70;99.90;;;;;;5092463;28;20205;-68
2022/04/18 01:40:05;;;;;;;1342.30;999.90;;;9.70;99.90;;;;;;5093275;28;20207;-68
2022/04/18 01:42:31;;;;;;;1345.07;999.90;;;9.70;99.90;;;;;;5056063;28;20219;-68
2022/04/18 01:44:57;;;;;;;1345.40;999.90;;;9.90;99.90;;;;;;5073677;28;20188;-68
2022/04/18 01:47:23;;;;;;;1349.60;999.90;;;9.90;99.90;;;;;;5075330;28;20193;-68
2022/04/18 01:49:48;;;;;;;1352.60;999.90;;;10.10;99.90;;;;;;5058784;28;20606;-69
2022/04/18 01:52:15;;;;;;;1351.60;999.90;;;10.00;99.90;;;;;;5073605;28;20578;-68
2022/04/18 01:54:41;;;;;;;1354.67;999.90;;;10.00;99.90;;;;;;5075293;28;20227;-68
2022/04/18 01:57:06;;;;;;;1358.30;999.90;;;9.80;99.90;;;;;;5056188;28;20649;-67
2022/04/18 01:59:32;;;;;;;1357.67;999.90;;;9.60;99.90;;;;;;5074955;28;20568;-68
2022/04/18 02:01:58;;;;;;;1362.93;999.90;;;9.50;99.90;;;;;;5092861;28;20185;-68
2022/04/18 02:04:24;;;;;;;1367.67;999.90;;;9.40;99.90;;;;;;5058657;28;20638;-68
2022/04/18 02:06:49;;;;;;;1361.97;999.90;;;9.30;99.90;;;;;;5058095;28;20302;-68
2022/04/18 02:09:15;;;;;;;1371.07;999.90;;;9.30;99.90;;;;;;5092404;28;20644;-68
2022/04/18 02:11:40;;;;;;;1369.13;999.90;;;9.30;99.90;;;;;;5093129;28;20211;-68
2022/04/18 02:14:06;;;;;;;1371.10;999.90;;;9.20;99.90;;;;;;5092861;28;20338;-69
2022/04/18 02:16:32;;;;;;;1371.23;999.90;;;9.20;99.90;;;;;;5074715;28;20200;-68
2022/04/18 02:18:58;;;;;;;1378.47;999.90;;;9.10;99.90;;;;;;5073944;28;20181;-68
2022/04/18 02:21:23;;;;;;;1373.87;999.90;;;9.10;99.90;;;;;;5060425;28;20276;-68
2022/04/18 02:23:50;;;;;;;1382.07;999.90;;;9.20;99.90;;;;;;5091674;28;20245;-68
2022/04/18 02:26:15;;;;;;;1387.93;999.90;;;9.20;99.90;;;;;;5092352;28;20189;-68
2022/04/18 02:28:41;;;;;;;1382.40;999.90;;;9.30;99.90;;;;;;5062185;28;20279;-68
2022/04/18 02:31:08;;;;;;;1382.60;999.90;;;9.30;99.90;;;;;;5085672;28;20196;-68
2022/04/18 02:33:33;;;;;;;1379.00;999.90;;;9.30;99.90;;;;;;5091992;28;20295;-68
2022/04/18 02:36:01;;;;;;;1377.03;999.90;;;9.30;99.90;;;;;;5074908;28;20267;-68
2022/04/18 02:38:27;;;;;;;1380.03;999.90;;;9.20;99.90;;;;;;5092507;28;20187;-68
2022/04/18 02:40:53;;;;;;;1382.83;999.90;;;9.10;99.90;;;;;;5074540;28;20193;-68
2022/04/18 02:43:19;;;;;;;1385.83;999.90;;;9.00;99.90;;;;;;5091711;28;20195;-68
2022/04/18 02:45:44;;;;;;;1383.40;999.90;;;8.90;99.90;;;;;;5091968;28;20615;-68
2022/04/18 02:48:10;;;;;;;1388.07;999.90;;;8.90;99.90;;;;;;5092733;28;20211;-68
2022/04/18 02:50:36;;;;;;;1382.47;999.90;;;8.80;99.90;;;;;;5064925;28;20195;-67
2022/04/18 02:53:02;;;;;;;1390.30;999.90;;;8.80;99.90;;;;;;5069455;28;20244;-67
2022/04/18 02:55:28;;;;;;;1386.83;999.90;;;8.80;99.90;;;;;;5087697;28;20177;-67
2022/04/18 02:57:53;;;;;;;1387.77;999.90;;;8.80;99.90;;;;;;5025750;28;20237;-67
2022/04/18 03:00:19;;;;;;;1392.07;999.90;;;8.70;99.90;;;;;;5092537;28;20279;-68
2022/04/18 03:02:45;;;;;;;1399.13;999.90;;;8.60;99.90;;;;;;5066711;28;20193;-67
2022/04/18 03:05:12;;;;;;;1399.27;999.90;;;8.60;99.90;;;;;;5058125;28;20200;-68
2022/04/18 03:07:38;;;;;;;1400.13;999.90;;;8.50;99.90;;;;;;5078211;28;20196;-67
2022/04/18 03:10:05;;;;;;;1398.83;999.90;;;8.50;99.90;;;;;;5087784;28;20656;-67
2022/04/18 03:12:31;;;;;;;1402.43;999.90;;;8.50;99.90;;;;;;5060552;28;20362;-67
2022/04/18 03:14:57;;;;;;;1402.87;999.90;;;8.40;99.90;;;;;;5091902;28;20566;-71
2022/04/18 03:17:23;;;;;;;1404.87;999.90;;;8.40;99.90;;;;;;5075078;28;20189;-67
2022/04/18 03:19:48;;;;;;;1408.53;999.90;;;8.40;99.90;;;;;;5056302;28;20193;-67
2022/04/18 03:22:14;;;;;;;1408.47;999.90;;;8.50;99.90;;;;;;5064763;28;20193;-67
2022/04/18 03:24:40;;;;;;;1405.73;999.90;;;8.80;99.90;;;;;;5088625;28;20534;-67
2022/04/18 03:27:06;;;;;;;1410.07;999.90;;;8.90;99.90;;;;;;5091912;28;20191;-67
2022/04/18 03:29:32;;;;;;;1415.83;999.90;;;8.90;99.90;;;;;;5092086;28;20223;-67
2022/04/18 03:31:58;;;;;;;1413.50;999.90;;;9.00;99.90;;;;;;5073782;28;20599;-67
2022/04/18 03:34:24;;;;;;;1411.13;999.90;;;9.00;99.90;;;;;;5081480;28;20213;-67
2022/04/18 03:39:51;;;;;;;1416.07;999.90;;;8.80;99.90;;;;;;5076465;28;20204;-67
2022/04/18 03:42:32;;;;;;;1409.30;999.90;;;8.60;99.90;;;;;;5081038;28;20267;-67
2022/04/18 03:45:00;;;;;;;1410.13;999.90;;;8.60;99.90;;;;;;5091634;28;20185;-67
2022/04/18 03:47:30;;;;;;;1409.00;999.90;;;8.50;99.90;;;;;;5093348;28;20642;-67
2022/04/18 03:49:56;;;;;;;1410.33;999.90;;;8.40;99.90;;;;;;5095434;28;20188;-67
2022/04/18 03:52:23;;;;;;;1413.03;999.90;;;8.40;99.90;;;;;;5095629;28;20180;-67
2022/04/18 03:54:49;;;;;;;1407.70;999.90;;;8.60;99.90;;;;;;5095350;28;20211;-67
2022/04/18 03:57:15;;;;;;;1412.37;999.90;;;8.60;99.90;;;;;;5077033;28;20216;-68
2022/04/18 03:59:41;;;;;;;1406.77;999.90;;;8.50;99.90;;;;;;5094876;28;20197;-67
2022/04/18 04:02:08;;;;;;;1408.00;999.90;;;8.40;99.90;;;;;;5095549;28;20637;-67
2022/04/18 04:04:34;;;;;;;1407.87;999.90;;;8.30;99.90;;;;;;5060553;28;20200;-67
2022/04/18 04:07:00;;;;;;;1411.33;999.90;;;8.20;99.90;;;;;;5083814;28;20196;-67
2022/04/18 04:09:26;;;;;;;1407.33;999.90;;;8.20;99.90;;;;;;5085677;28;20188;-67
2022/04/18 04:11:51;;;;;;;1412.30;999.90;;;8.20;99.90;;;;;;5077155;28;20188;-67
2022/04/18 04:14:18;;;;;;;1409.97;999.90;;;8.10;99.90;;;;;;5094373;28;20223;-68
2022/04/18 04:16:44;;;;;;;1411.23;999.90;;;8.10;99.90;;;;;;5095145;28;20737;-67
2022/04/18 04:19:09;;;;;;;1407.83;999.90;;;8.00;99.90;;;;;;5095136;28;20184;-67
2022/04/18 04:21:35;;;;;;;1406.80;999.90;;;8.00;99.90;;;;;;5076951;28;20188;-67
2022/04/18 04:24:01;;;;;;;1408.57;999.90;;;8.00;99.90;;;;;;5077279;28;20216;-67
2022/04/18 04:26:27;;;;;;;1413.20;999.90;;;8.00;99.90;;;;;;5094823;28;20589;-66
2022/04/18 04:28:53;;;;;;;1413.27;999.90;;;8.10;99.90;;;;;;5059925;28;20606;-67
2022/04/18 04:31:19;;;;;;;1414.13;999.90;;;8.30;99.90;;;;;;5093912;28;20215;-67
2022/04/18 04:33:44;;;;;;;1412.23;999.90;;;8.30;99.90;;;;;;5076497;28;20227;-67
2022/04/18 04:36:12;;;;;;;1413.10;999.90;;;8.20;99.90;;;;;;5075850;28;20195;-68
2022/04/18 04:38:38;;;;;;;1413.77;999.90;;;8.00;99.90;;;;;;5076861;28;20188;-69
2022/04/18 04:41:04;;;;;;;1410.07;999.90;;;8.00;99.90;;;;;;5059913;28;20277;-68
2022/04/18 04:43:29;;;;;;;1415.20;999.90;;;7.90;99.90;;;;;;5072172;28;20200;-67
2022/04/18 04:45:55;;;;;;;1414.97;999.90;;;7.90;99.90;;;;;;5089925;28;20180;-67
2022/04/18 04:48:22;;;;;;;1413.43;999.90;;;7.90;99.90;;;;;;5093668;28;20271;-67
2022/04/18 04:50:48;;;;;;;1411.10;999.90;;;7.80;99.90;;;;;;5076623;28;20181;-67
2022/04/18 04:53:13;;;;;;;1409.37;999.90;;;7.80;99.90;;;;;;5077027;28;20690;-67
2022/04/18 04:55:39;;;;;;;1413.37;999.90;;;7.80;99.90;;;;;;5075773;28;20526;-67
2022/04/18 04:58:05;;;;;;;1409.50;999.90;;;8.00;99.90;;;;;;5075677;28;20219;-67
2022/04/18 05:00:31;;;;;;;1413.87;999.90;;;8.10;99.90;;;;;;5075782;28;20227;-67
2022/04/18 05:02:58;;;;;;;1407.47;999.90;;;8.10;99.90;;;;;;5093389;28;20197;-67
2022/04/18 05:05:24;;;;;;;1411.40;999.90;;;8.20;99.90;;;;;;5076239;28;20566;-67
2022/04/18 05:07:49;;;;;;;1405.23;999.90;;;8.10;99.90;;;;;;5094215;28;20184;-67
2022/04/18 05:10:16;;;;;;;1406.77;999.90;;;8.10;99.90;;;;;;5093188;28;20192;-68
2022/04/18 05:12:42;;;;;;;1408.77;999.90;;;8.10;99.90;;;;;;5093796;28;20216;-67
2022/04/18 05:15:08;;;;;;;1400.10;999.90;;;8.10;99.90;;;;;;5075852;28;20241;-67
2022/04/18 05:17:34;;;;;;;1403.33;999.90;;;8.10;99.90;;;;;;5093678;28;20233;-67
2022/04/18 05:20:02;;;;;;;1401.70;999.90;;;8.20;99.90;;;;;;5054619;28;20586;-67
2022/04/18 05:22:28;;;;;;;1392.70;999.90;;;8.30;99.90;;;;;;5085424;28;20657;-68
2022/04/18 05:24:55;;;;;;;1395.70;999.90;;;8.40;99.90;;;;;;5093718;28;20196;-67
2022/04/18 05:27:21;;;;;;;1384.50;999.90;;;8.40;99.90;;;;;;5074159;28;20185;-68
2022/04/18 05:29:47;;;;;;;1389.50;999.90;;;8.50;99.90;;;;;;5094797;28;20184;-67
2022/04/18 05:32:12;;;;;;;1389.57;999.90;;;8.60;99.90;;;;;;5074749;28;20193;-68
2022/04/18 05:34:48;;;;;;;1382.50;999.90;;;8.70;99.90;;;;;;5093133;28;20180;-67
2022/04/18 05:37:13;;;;;;;1378.10;999.90;;;8.80;99.90;;;;;;5075691;28;20271;-68
2022/04/18 05:39:39;;;;;;;1377.97;999.90;;;9.00;99.90;;;;;;5093812;28;20264;-67
2022/04/18 05:42:06;;;;;;;1372.50;999.90;;;9.10;99.90;;;;;;5075397;28;20617;-67
2022/04/18 05:44:33;;;;;;;1370.40;999.90;;;9.30;99.90;;;;;;5074414;28;20177;-67
2022/04/18 05:46:59;;;;;;;1375.63;999.90;;;9.40;99.90;;;;;;5093596;28;20230;-67
2022/04/18 05:49:28;;;;;;;1366.00;999.90;;;9.60;99.90;;;;;;5092213;28;20196;-67
2022/04/18 05:51:56;;;;;;;1358.00;999.90;;;9.80;99.90;;;;;;5060845;28;20205;-68
2022/04/18 05:54:22;;;;;;;1355.90;999.90;;;10.00;99.90;;;;;;5040366;28;20213;-67
2022/04/18 05:56:48;;;;;;;1357.33;999.90;;;10.20;99.90;;;;;;5091590;28;20263;-67
2022/04/18 05:59:13;;;;;;;1358.73;999.90;;;10.20;99.90;;;;;;5075408;28;20193;-68
2022/04/18 06:01:39;;;;;;;1351.07;999.90;;;10.30;99.90;;;;;;5091765;28;20271;-67
2022/04/18 06:04:04;;;;;;;1352.97;999.90;;;10.40;99.90;;;;;;5092607;28;20197;-67
2022/04/18 06:06:30;;;;;;;1351.87;999.90;;;10.60;99.90;;;;;;5093121;28;20189;-67
2022/04/18 06:08:56;;;;;;;1338.97;999.90;;;10.70;99.90;;;;;;5092415;28;20195;-67
2022/04/18 06:11:21;;;;;;;1343.60;999.90;;;10.80;99.90;;;;;;5074442;28;20181;-68
2022/04/18 06:13:47;;;;;;;1339.33;999.90;;;10.90;99.90;;;;;;5075693;28;20212;-67
2022/04/18 06:16:13;;;;;;;1333.37;999.90;;;11.20;99.90;;;;;;5074494;28;20192;-69
2022/04/18 06:18:38;;;;;;;1337.30;999.90;;;11.20;99.90;;;;;;5074334;28;20180;-67
2022/04/18 06:21:05;;;;;;;1337.20;999.90;;;11.10;99.90;;;;;;5057756;28;20268;-67
2022/04/18 06:23:31;;;;;;;1332.80;999.90;;;11.20;99.90;;;;;;5073906;28;20197;-67
2022/04/18 06:25:57;;;;;;;1334.70;999.90;;;11.20;99.90;;;;;;5065310;28;20250;-68
2022/04/18 06:28:23;;;;;;;1328.67;999.90;;;11.30;99.90;;;;;;5057526;28;20199;-67
2022/04/18 06:30:48;;;;;;;1328.67;999.90;;;11.40;99.90;;;;;;5042449;28;20192;-69
2022/04/18 06:33:14;;;;;;;1316.97;999.90;;;11.60;99.90;;;;;;5076093;28;20216;-68
2022/04/18 06:35:41;;;;;;;1320.00;999.90;;;11.70;99.90;;;;;;5092786;28;20211;-67
2022/04/18 06:38:08;;;;;;;1324.67;999.90;;;11.70;99.90;;;;;;5092421;28;20191;-67
2022/04/18 06:40:34;;;;;;;1321.17;999.90;;;11.70;99.90;;;;;;5074322;28;20728;-67
2022/04/18 06:42:59;;;;;;;1320.67;999.90;;;11.70;99.90;;;;;;5074653;28;20620;-67
2022/04/18 06:45:27;;;;;;;1315.37;999.90;;;12.10;99.90;;;;;;5059402;28;20224;-67
2022/04/18 06:47:53;;;;;;;1307.40;999.90;;;12.20;99.90;;;;;;5092899;28;20722;-67
2022/04/18 06:50:21;;;;;;;1313.33;999.90;;;12.40;99.90;;;;;;5092836;28;20188;-67
2022/04/18 06:52:49;;;;;;;1314.32;999.90;;;12.40;99.90;;;;;;5060413;28;20219;-67
2022/04/18 06:55:15;;;;;;;1310.30;999.90;;;12.40;99.90;;;;;;5092066;28;20649;-67
2022/04/18 06:57:41;;;;;;;1304.72;999.90;;;12.60;99.90;;;;;;5074632;28;20193;-67
2022/04/18 07:00:08;;;;;;;1291.80;999.90;;;12.70;99.90;;;;;;5073606;28;20204;-67
2022/04/18 07:02:34;;;;;;;1282.55;999.90;;;12.90;99.90;;;;;;5074738;28;20669;-67
2022/04/18 07:05:00;;;;;;;1274.15;999.90;;;13.10;99.90;;;;;;5091841;28;20199;-67
2022/04/18 07:07:26;;;;;;;1261.20;999.90;;;13.20;99.90;;;;;;5091571;28;20181;-67
2022/04/18 07:09:51;;;;;;;1255.00;999.90;;;13.40;99.90;;;;;;5057244;28;20176;-67
2022/04/18 07:12:22;;;;;;;1243.53;999.90;;;13.60;99.90;;;;;;5092290;28;20234;-68
2022/04/18 07:14:48;;;;;;;1234.22;999.90;;;13.80;99.90;;;;;;5074106;28;20649;-67
2022/04/18 07:17:14;;;;;;;1215.30;999.90;;;14.00;99.90;;;;;;5064561;28;20219;-70
2022/04/18 07:19:40;;;;;;;1215.40;999.90;;;14.50;99.90;;;;;;5057696;28;20191;-67
2022/04/18 07:22:06;;;;;;;1206.32;999.90;;;14.80;99.90;;;;;;5075923;28;20196;-67
2022/04/18 07:24:32;;;;;;;1205.95;999.90;;;14.90;99.90;;;;;;5095085;28;20188;-67
2022/04/18 07:27:00;;;;;;;1196.47;999.90;;;15.10;99.90;;;;;;5096336;28;20677;-67
2022/04/18 07:29:27;;;;;;;1201.75;999.90;;;15.20;99.90;;;;;;5095369;28;20184;-67
2022/04/18 07:31:53;;;;;;;1194.10;999.90;;;15.30;99.90;;;;;;5095858;28;20279;-67
2022/04/18 07:34:19;;;;;;;1178.13;999.90;;;15.60;99.90;;;;;;5095226;28;20219;-67
2022/04/18 07:36:48;;;;;;;1177.25;999.90;;;16.70;99.90;;;;;;5096343;28;20196;-67
2022/04/18 07:39:13;;;;;;;1173.88;999.90;;;16.90;99.90;;;;;;5078068;28;20207;-67
2022/04/18 07:41:39;;;;;;;1161.22;999.90;;;16.70;99.90;;;;;;5077043;28;20188;-70
2022/04/18 07:44:05;;;;;;;1149.03;999.90;;;16.80;99.90;;;;;;5077605;28;20526;-67
2022/04/18 07:46:31;;;;;;;1143.30;999.90;;;17.00;99.90;;;;;;5094917;28;20208;-67
2022/04/18 07:48:57;;;;;;;1119.68;999.90;;;17.60;99.90;;;;;;5095847;28;20184;-67
2022/04/18 07:51:32;;;;;;;1102.93;999.90;;;18.60;99.90;;;;;;5088270;28;20188;-67
2022/04/18 07:53:59;;;;;;;1072.85;997.85;;;19.20;99.90;;;;;;5090518;28;20265;-67
2022/04/18 07:56:25;;;;;;;1042.30;972.20;;;19.40;99.90;;;;;;5094458;28;20267;-67
2022/04/18 07:58:52;;;;;;;1009.83;943.67;;;19.60;99.90;;;;;;5095617;28;20283;-67
2022/04/18 08:01:22;;;;;;;940.88;882.05;;;20.40;99.90;;;;;;5095661;28;20252;-69
2022/04/18 08:03:48;;;;;;;894.08;839.60;;;21.20;99.90;;;;;;5095702;28;20208;-68
2022/04/18 08:06:16;;;;;;;902.60;847.47;;;20.80;99.90;;;;;;5086409;28;20264;-68
2022/04/18 08:08:42;;;;;;;905.30;850.05;;;20.70;99.90;;;;;;5070433;28;20215;-68
2022/04/18 08:11:17;;;;;;;943.03;884.08;;;20.30;99.90;;;;;;5092405;28;20197;-65
2022/04/18 08:13:44;;;;;;;958.88;898.25;;;19.70;99.90;;;;;;4731064;28;9999867;-64
2022/04/18 08:16:13;;;;;;;945.95;886.53;;;19.40;99.90;;;;;;5084625;28;20230;-72
2022/04/18 08:18:42;;;;;;;944.88;885.63;;;19.60;99.90;;;;;;5073189;28;20577;-71
2022/04/18 08:21:08;;;;;;;916.95;860.25;;;19.80;99.90;;;;;;5091119;28;20544;-69
2022/04/18 08:23:35;;;;;;;922.28;865.05;;;19.90;99.90;;;;;;5090012;28;20717;-68
2022/04/18 08:26:04;;;;;;;938.45;879.85;;;20.10;99.90;;;;;;5056075;28;20279;-69
2022/04/18 08:28:30;;;;;;;932.08;874.25;;;20.60;99.90;;;;;;5090769;28;20188;-69
2022/04/18 08:30:57;;;;;;;907.28;851.67;;;20.60;99.90;;;;;;5089928;28;20193;-68
2022/04/18 08:33:23;;;;;;;901.50;846.42;;;20.40;99.90;;;;;;5056368;28;20573;-69
2022/04/18 08:35:49;;;;;;;904.35;849.05;;;20.50;99.70;;;;;;5091068;28;20195;-69
2022/04/18 08:38:15;;;;;;;934.05;875.97;;;20.40;98.60;;;;;;5090442;28;20180;-69
2022/04/18 08:40:43;;;;;;;951.80;892.05;;;20.20;98.90;;;;;;5090854;28;20240;-69
2022/04/18 08:43:09;;;;;;;957.10;896.58;;;20.00;99.40;;;;;;5091143;28;20263;-68
2022/04/18 08:45:37;;;;;;;955.22;894.83;;;20.00;99.80;;;;;;5086783;28;20288;-73
2022/04/18 08:53:32;;;;;;;905.03;849.65;;;21.10;99.30;;;;;;5069100;28;20265;-77
2022/04/18 08:55:59;;;;;;;847.40;797.33;;;22.30;98.40;;;;;;5090445;28;20272;-69
2022/04/18 08:58:28;;;;;;;800.17;755.58;;;22.80;98.20;;;;;;5088611;28;20211;-69
2022/04/18 09:00:56;;;;;;;790.47;746.88;;;23.10;97.50;;;;;;5062052;28;20181;-69
2022/04/18 09:03:22;;;;;;;801.20;756.45;;;23.10;96.90;;;;;;5064140;28;20272;-68
2022/04/18 09:05:48;;;;;;;828.53;780.85;;;22.40;97.90;;;;;;5062460;28;20275;-69
2022/04/18 09:08:13;;;;;;;874.20;821.58;;;21.40;97.40;;;;;;5093816;28;20653;-68
2022/04/18 09:10:41;;;;;;;906.03;850.65;;;20.50;98.10;;;;;;5092944;28;20185;-69
2022/04/18 09:13:12;;;;;;;919.38;862.65;;;20.30;98.50;;;;;;5072661;28;20288;-69
2022/04/18 09:15:46;;;;;;;953.58;893.80;;;20.10;98.30;;;;;;5085427;28;20260;-69
2022/04/18 09:18:17;;;;;;;972.03;910.25;;;20.10;98.10;;;;;;5086329;28;20653;-70
2022/04/18 09:21:04;;;;;;;986.55;923.47;;;19.90;98.00;;;;;;5071072;28;20172;-69
2022/04/18 09:23:33;;;;;;;1011.95;946.08;;;19.50;98.30;;;;;;5090588;28;20218;-67
2022/04/18 09:26:03;;;;;;;1018.30;951.38;;;19.40;99.20;;;;;;5061116;28;20180;-68
2022/04/18 09:28:34;;;;;;;1017.53;950.83;;;19.40;98.50;;;;;;5069486;28;20660;-69
2022/04/18 09:30:59;;;;;;;1034.00;965.13;;;19.20;98.80;;;;;;5088675;28;20181;-67
2022/04/18 09:33:32;;;;;;;1039.43;969.50;;;19.20;99.50;;;;;;5084814;28;20288;-67
2022/04/18 09:36:10;;;;;;;1038.00;968.70;;;19.30;99.10;;;;;;5092623;28;20186;-67
2022/04/18 09:38:38;;;;;;;1021.78;954.47;;;19.50;99.60;;;;;;5082579;28;20188;-68
2022/04/18 09:41:04;;;;;;;1018.00;950.90;;;19.30;98.50;;;;;;5090538;28;20173;-68
2022/04/18 09:43:42;;;;;;;1022.53;954.97;;;19.40;98.30;;;;;;5090202;28;20191;-69
2022/04/18 09:46:09;;;;;;;1020.35;953.20;;;19.10;98.30;;;;;;5075538;28;20553;-68
2022/04/18 09:48:35;;;;;;;1017.03;950.15;;;19.20;98.30;;;;;;5091863;28;20626;-67
2022/04/18 09:51:07;;;;;;;1023.90;956.45;;;19.40;98.20;;;;;;5089688;28;20195;-68
2022/04/18 09:53:33;;;;;;;1015.92;949.50;;;19.50;98.70;;;;;;5079731;28;20265;-67
2022/04/18 09:55:59;;;;;;;999.97;935.20;;;19.70;97.90;;;;;;5058990;28;20244;-66
2022/04/18 09:58:25;;;;;;;1005.60;939.97;;;19.60;97.10;;;;;;5092981;28;20188;-67
2022/04/18 10:00:51;;;;;;;995.92;931.75;;;19.60;97.80;;;;;;5087300;28;20189;-67
2022/04/18 10:03:19;;;;;;;997.13;932.63;;;19.50;97.70;;;;;;5073656;28;20189;-68
2022/04/18 10:05:47;;;;;;;1004.05;938.65;;;19.50;97.90;;;;;;5054908;28;20220;-67
2022/04/18 10:08:14;;;;;;;995.75;931.33;;;19.70;97.80;;;;;;5082748;28;20237;-67
2022/04/18 10:10:43;;;;;;;990.05;926.35;;;19.70;97.40;;;;;;5082590;28;20692;-68
2022/04/18 10:13:10;;;;;;;973.03;911.13;;;19.60;97.10;;;;;;5091480;28;21410;-68
2022/04/18 10:15:37;;;;;;;942.42;883.70;;;19.50;96.80;;;;;;5085533;28;20185;-68
2022/04/18 10:18:06;;;;;;;952.50;892.88;;;19.20;94.80;;;;;;5063744;28;20188;-68
2022/04/18 10:20:37;;;;;;;959.30;899.00;;;19.20;95.10;;;;;;5088082;28;20618;-68
2022/04/18 10:23:20;;;;;;;956.15;896.22;;;19.30;94.80;;;;;;5061710;28;20195;-67
2022/04/18 10:26:19;;;;;;;964.65;903.88;;;19.30;94.70;;;;;;5088716;28;20176;-67
2022/04/18 10:28:48;;;;;;;965.10;904.15;;;19.20;95.80;;;;;;5073382;28;20186;-68
2022/04/18 10:31:19;;;;;;;981.33;918.58;;;19.00;95.40;;;;;;5078950;28;20685;-67
2022/04/18 10:33:45;;;;;;;987.30;924.25;;;19.10;95.90;;;;;;5090485;28;20555;-67
2022/04/18 10:36:12;;;;;;;990.85;927.17;;;19.20;96.20;;;;;;5083953;28;20189;-68
2022/04/18 10:38:40;;;;;;;969.70;908.20;;;19.30;97.00;;;;;;5053076;28;20196;-66
2022/04/18 10:41:40;;;;;;;966.55;905.53;;;19.50;96.10;;;;;;5091474;28;20701;-67
2022/04/18 10:44:08;;;;;;;972.10;910.45;;;19.60;95.40;;;;;;5091978;28;20648;-67
2022/04/18 10:46:50;;;;;;;947.67;888.40;;;19.50;96.20;;;;;;5070203;28;20552;-67
2022/04/18 10:49:17;;;;;;;937.75;879.45;;;19.70;94.70;;;;;;5074064;28;20185;-67
2022/04/18 10:51:45;;;;;;;932.33;874.55;;;19.60;93.60;;;;;;5074354;28;20184;-70
2022/04/18 10:54:14;;;;;;;930.80;873.13;;;19.70;93.40;;;;;;5073768;28;20631;-66
2022/04/18 10:56:53;;;;;;;935.85;877.88;;;19.50;93.10;;;;;;5085790;28;20645;-67
2022/04/18 10:59:21;;;;;;;944.97;886.03;;;19.20;93.40;;;;;;5094582;28;20188;-67
2022/04/18 11:01:48;;;;;;;954.83;894.90;;;18.80;94.60;;;;;;5083438;28;20180;-68
2022/04/18 11:04:14;;;;;;;947.33;888.08;;;18.70;94.30;;;;;;5080599;28;20193;-67
2022/04/18 11:06:40;;;;;;;931.58;873.97;;;18.90;94.10;;;;;;5058716;28;20193;-68
2022/04/18 11:09:15;;;;;;;935.00;876.97;;;19.10;93.10;;;;;;5079260;28;20185;-67
2022/04/18 11:11:40;;;;;;;961.05;900.58;;;19.00;93.50;;;;;;5076150;28;20189;-67
2022/04/18 11:14:30;;;;;;;965.33;904.45;;;19.00;94.30;;;;;;5087226;28;20295;-67
2022/04/18 11:16:57;;;;;;;990.55;926.95;;;18.60;94.80;;;;;;5085562;28;20183;-67
2022/04/18 11:19:28;;;;;;;989.40;925.60;;;18.50;95.60;;;;;;5077595;28;20191;-68
2022/04/18 11:24:40;;;;;;;1001.42;936.58;;;18.60;95.80;;;;;;5095722;28;20218;-68
2022/04/18 11:27:11;;;;;;;988.47;924.95;;;18.30;95.50;;;;;;5078550;28;20231;-66
2022/04/18 11:29:38;;;;;;;1015.20;948.50;;;18.10;95.00;;;;;;5094312;28;20184;-67
2022/04/18 11:32:06;;;;;;;1025.93;958.10;;;18.10;96.30;;;;;;5094796;28;20188;-67
2022/04/18 11:34:33;;;;;;;1021.40;954.33;;;18.20;96.00;;;;;;5095507;28;20236;-67
2022/04/18 11:37:04;;;;;;;1011.10;944.92;;;18.70;96.00;;;;;;5095290;28;20524;-67
2022/04/18 11:39:48;;;;;;;1011.80;945.80;;;19.00;95.20;;;;;;5096349;28;20165;-67
2022/04/18 11:42:19;;;;;;;1002.28;937.67;;;19.20;95.50;;;;;;5096023;28;20181;-67
2022/04/18 11:44:46;;;;;;;979.92;917.55;;;19.30;94.60;;;;;;5095529;28;20596;-67
2022/04/18 11:47:19;;;;;;;980.08;917.53;;;19.40;93.70;;;;;;5077002;28;20184;-67
2022/04/18 11:49:45;;;;;;;986.47;923.03;;;19.40;94.40;;;;;;5082269;28;20202;-67
2022/04/18 11:52:24;;;;;;;977.60;915.42;;;19.70;95.20;;;;;;5094703;28;20598;-67
2022/04/18 11:55:00;;;;;;;966.83;905.50;;;19.70;95.30;;;;;;5095482;28;20680;-67
2022/04/18 11:57:28;;;;;;;946.13;886.97;;;19.70;94.30;;;;;;5077484;28;20196;-67
2022/04/18 11:59:54;;;;;;;950.95;891.47;;;19.80;93.90;;;;;;5095610;28;20197;-66
2022/04/18 12:08:05;;;;;;;971.92;910.25;;;19.40;94.10;;;;;;5050464;28;20200;-66
2022/04/18 12:10:35;;;;;;;969.22;907.90;;;19.80;94.80;;;;;;5041243;28;20211;-67
2022/04/18 12:13:05;;;;;;;962.28;901.50;;;19.90;94.60;;;;;;5078625;28;20683;-67
2022/04/18 12:15:31;;;;;;;959.10;898.58;;;20.00;95.20;;;;;;5090445;28;20201;-68
2022/04/18 12:17:57;;;;;;;948.15;888.80;;;20.00;94.80;;;;;;5079886;28;20204;-68
2022/04/18 12:20:28;;;;;;;951.00;891.58;;;19.50;94.40;;;;;;5083168;28;20658;-69
2022/04/18 12:22:59;;;;;;;946.55;887.38;;;19.30;95.00;;;;;;5090479;28;20630;-67
2022/04/18 12:25:27;;;;;;;954.55;894.67;;;19.60;94.20;;;;;;5060016;28;20189;-67
2022/04/18 12:27:55;;;;;;;960.08;899.78;;;19.50;94.20;;;;;;5083621;28;20209;-66